Milden, Canada
Current Conditions -  °F | °C
As of 6:00 PM on Saturday 22 Nov 2014 (Local Time) from CYXE Reporting Station
Light Snow Light Snow  
Wind Chill:   Ceiling: 900
Heat Index: 23°   Visibility: 2mi
Dew Point: 21°   Wind: 22mph
Humidity: 93%   Direction: 50°NE
Pressure: 29.19"   Gusts: 30mph
Location:  51.48°N, 107.52°W
Report Text: CYXE 230000Z 05019G26KT 2SM R09/5500VP6000FT/U -SN DRSN BKN009 OVC022 M05/M06 A2919 RMK SC6SC2 VIS VRB 1-3 SLP911
Loading
Personal Weather Stations






























Interactive Weather Map New forecast layout! Learn more

10-Day Weather Forecast

Advertisements
Track Severe Weather on mobile